Time;durP1;ratioP1;P1;durP2;ratioP2;P2;SDS_P1;SDS_P2;PMS_P1;PMS_P2;Temp;Humidity;BMP_temperature;BMP_pressure;BME280_temperature;BME280_humidity;BME280_pressure;Samples;Min_cycle;Max_cycle;Signal;HPM_P1;HPM_P2
2022/04/04 00:02:24;;;;;;;21.63;13.13;;;103.10;2227.20;;;;;;5048027;28;20544;-55
2022/04/04 00:04:50;;;;;;;25.60;14.95;;;103.10;2227.20;;;;;;5049263;28;20068;-54
2022/04/04 00:07:16;;;;;;;29.08;18.17;;;103.10;2227.20;;;;;;5049079;28;20029;-55
2022/04/04 00:09:41;;;;;;;19.80;13.75;;;103.10;2227.20;;;;;;5048793;28;20040;-55
2022/04/04 00:12:09;;;;;;;24.88;17.75;;;103.10;2227.20;;;;;;5049236;28;20040;-55
2022/04/04 00:14:35;;;;;;;24.13;15.85;;;103.00;2227.20;;;;;;5049115;28;20032;-55
2022/04/04 00:17:01;;;;;;;19.10;13.93;;;103.00;2227.20;;;;;;5049186;28;20024;-56
2022/04/04 00:19:27;;;;;;;23.20;15.25;;;102.90;2227.20;;;;;;5048966;28;20025;-55
2022/04/04 00:21:53;;;;;;;22.73;14.77;;;102.80;2227.20;;;;;;5048806;28;20491;-55
2022/04/04 00:24:19;;;;;;;21.70;15.15;;;102.80;2227.20;;;;;;5049247;28;20079;-55
2022/04/04 00:26:44;;;;;;;21.08;15.15;;;102.70;2227.20;;;;;;5048839;28;20029;-55
2022/04/04 00:29:11;;;;;;;22.67;14.73;;;102.50;2227.20;;;;;;5048724;28;20056;-55
2022/04/04 00:31:37;;;;;;;23.48;15.68;;;77.60;2227.20;;;;;;5048881;28;20037;-55
2022/04/04 00:34:03;;;;;;;23.92;15.18;;;77.40;2227.20;;;;;;5048920;28;20095;-55
2022/04/04 00:36:28;;;;;;;25.95;15.00;;;77.50;2227.20;;;;;;5048895;28;20025;-55
2022/04/04 00:38:54;;;;;;;21.98;15.02;;;77.50;2227.20;;;;;;5048578;28;20025;-54
2022/04/04 00:41:20;;;;;;;22.50;14.48;;;77.40;2227.20;;;;;;5048930;28;20050;-55
2022/04/04 00:43:49;;;;;;;29.67;17.77;;;77.30;2227.20;;;;;;5048911;28;20104;-54
2022/04/04 00:46:15;;;;;;;28.58;16.60;;;77.20;2227.20;;;;;;5048531;28;20067;-54
2022/04/04 00:48:40;;;;;;;32.85;17.50;;;77.10;2227.20;;;;;;5048697;28;20067;-56
2022/04/04 00:51:06;;;;;;;28.73;19.20;;;77.20;2227.20;;;;;;5048783;28;20025;-55
2022/04/04 00:53:32;;;;;;;34.97;21.15;;;76.90;2227.20;;;;;;5048543;28;20033;-55
2022/04/04 00:55:59;;;;;;;26.02;18.60;;;52.00;2227.20;;;;;;5048818;28;20127;-55
2022/04/04 00:58:30;;;;;;;27.85;17.27;;;51.80;2227.20;;;;;;5048633;28;20043;-54
2022/04/04 01:00:58;;;;;;;27.02;16.90;;;51.70;2227.20;;;;;;5048704;28;20029;-55
2022/04/04 01:03:24;;;;;;;28.10;16.80;;;51.90;2227.20;;;;;;5048436;28;20029;-55
2022/04/04 01:05:50;;;;;;;26.58;16.23;;;52.10;2227.20;;;;;;5048426;28;20514;-55
2022/04/04 01:08:16;;;;;;;28.75;18.23;;;76.80;2227.20;;;;;;5048562;28;20036;-55
2022/04/04 01:10:44;;;;;;;24.83;16.42;;;76.90;2227.20;;;;;;5048487;28;20032;-55
2022/04/04 01:13:11;;;;;;;25.92;16.60;;;76.90;2227.20;;;;;;5048588;28;20124;-55
2022/04/04 01:15:37;;;;;;;27.20;17.60;;;76.80;2227.20;;;;;;5052317;28;20108;-55
2022/04/04 01:18:04;;;;;;;29.08;17.92;;;76.80;2227.20;;;;;;5052101;28;20454;-54
2022/04/04 01:20:31;;;;;;;30.55;18.45;;;52.10;2227.20;;;;;;5052095;28;20055;-55
2022/04/04 01:22:57;;;;;;;32.85;20.33;;;52.10;2227.20;;;;;;5052405;28;20033;-55
2022/04/04 01:25:35;;;;;;;30.90;21.05;;;76.80;2227.20;;;;;;5051976;28;20029;-55
2022/04/04 01:28:02;;;;;;;24.17;16.23;;;51.90;2227.20;;;;;;5051875;28;20053;-56
2022/04/04 01:30:29;;;;;;;20.77;15.05;;;51.80;2227.20;;;;;;5052411;28;20112;-54
2022/04/04 01:32:55;;;;;;;25.15;15.45;;;51.80;2227.20;;;;;;5051530;28;20045;-55
2022/04/04 01:35:21;;;;;;;31.00;16.60;;;51.90;2227.20;;;;;;5051675;28;20047;-55
2022/04/04 01:37:48;;;;;;;22.88;14.55;;;52.00;2227.20;;;;;;5051936;28;20031;-55
2022/04/04 01:40:15;;;;;;;25.35;14.70;;;52.00;2227.20;;;;;;5051487;28;20402;-55
2022/04/04 01:42:41;;;;;;;24.02;14.55;;;52.00;2227.20;;;;;;5051598;28;20053;-56
2022/04/04 01:45:09;;;;;;;21.35;15.00;;;52.10;2227.20;;;;;;5051738;28;20104;-55
2022/04/04 01:47:35;;;;;;;24.13;16.42;;;52.10;2227.20;;;;;;5051499;28;20036;-55
2022/04/04 01:50:03;;;;;;;34.08;17.90;;;52.10;2227.20;;;;;;5051556;28;20147;-55
2022/04/04 01:52:29;;;;;;;58.00;28.60;;;52.00;2227.20;;;;;;5051563;28;20098;-55
2022/04/04 01:54:54;;;;;;;69.63;35.83;;;51.90;2227.20;;;;;;5051215;28;20025;-54
2022/04/04 01:57:20;;;;;;;28.55;17.00;;;52.00;2227.20;;;;;;5051246;28;20052;-55
2022/04/04 01:59:46;;;;;;;25.85;16.05;;;52.00;2227.20;;;;;;5051466;28;20037;-55
2022/04/04 02:02:12;;;;;;;29.38;16.45;;;51.70;2227.20;;;;;;5051149;28;20391;-56
2022/04/04 02:04:38;;;;;;;23.63;14.75;;;51.40;2227.20;;;;;;5051277;28;20476;-54
2022/04/04 02:07:07;;;;;;;26.17;15.52;;;26.50;2201.60;;;;;;5051213;28;20055;-55
2022/04/04 02:09:34;;;;;;;28.90;14.70;;;26.40;2201.60;;;;;;5051057;28;20532;-55
2022/04/04 02:12:00;;;;;;;22.88;14.45;;;26.50;2201.60;;;;;;5051340;28;20032;-55
2022/04/04 02:14:26;;;;;;;23.55;14.68;;;51.30;2227.20;;;;;;5051082;28;20108;-55
2022/04/04 02:16:52;;;;;;;23.75;16.02;;;51.50;2227.20;;;;;;5050791;28;20434;-55
2022/04/04 02:19:18;;;;;;;27.10;14.27;;;51.30;2227.20;;;;;;5051063;28;20037;-54
2022/04/04 02:21:44;;;;;;;20.42;15.60;;;51.20;2227.20;;;;;;5051162;28;20063;-54
2022/04/04 02:24:11;;;;;;;23.88;15.25;;;51.30;2227.20;;;;;;5051089;28;20029;-56
2022/04/04 02:26:37;;;;;;;24.27;14.60;;;51.40;2227.20;;;;;;5049846;28;20474;-55
2022/04/04 02:29:03;;;;;;;20.15;14.77;;;51.50;2227.20;;;;;;5050617;28;20138;-55
2022/04/04 02:31:29;;;;;;;26.83;16.20;;;51.50;2227.20;;;;;;5050852;28;20486;-54
2022/04/04 02:33:54;;;;;;;23.52;16.30;;;51.30;2227.20;;;;;;5050397;28;20033;-55
2022/04/04 02:36:20;;;;;;;27.30;18.90;;;51.50;2227.20;;;;;;5050961;28;20025;-55
2022/04/04 02:38:46;;;;;;;24.75;16.42;;;51.50;2227.20;;;;;;5050795;28;20033;-55
2022/04/04 02:41:12;;;;;;;23.23;16.83;;;51.60;2227.20;;;;;;5050476;28;20147;-55
2022/04/04 02:43:39;;;;;;;26.63;15.95;;;51.50;2227.20;;;;;;5050702;28;20040;-55
2022/04/04 02:46:05;;;;;;;26.55;15.68;;;51.40;2227.20;;;;;;5050474;28;20033;-55
2022/04/04 02:48:31;;;;;;;25.85;14.68;;;51.50;2227.20;;;;;;5050318;28;20025;-56
2022/04/04 02:50:57;;;;;;;22.95;14.48;;;51.60;2227.20;;;;;;5050424;28;20094;-55
2022/04/04 02:53:23;;;;;;;23.40;14.73;;;51.60;2227.20;;;;;;5050267;28;20044;-55
2022/04/04 02:58:33;;;;;;;22.98;14.55;;;51.50;2227.20;;;;;;5050207;28;20051;-55
2022/04/04 03:00:59;;;;;;;21.85;14.80;;;51.40;2227.20;;;;;;5050255;28;20115;-55
2022/04/04 03:03:24;;;;;;;21.60;14.35;;;51.30;2227.20;;;;;;5049921;28;20068;-55
2022/04/04 03:05:50;;;;;;;22.10;14.02;;;51.20;2227.20;;;;;;5050174;28;20021;-55
2022/04/04 03:08:16;;;;;;;23.95;15.70;;;51.20;2227.20;;;;;;5050188;28;20032;-55
2022/04/04 03:10:41;;;;;;;19.55;13.52;;;26.30;2201.60;;;;;;5049783;28;20529;-55
2022/04/04 03:13:07;;;;;;;22.65;14.07;;;26.30;2201.60;;;;;;5049979;28;20090;-55
2022/04/04 03:15:34;;;;;;;22.90;14.32;;;26.40;2201.60;;;;;;5049969;28;20029;-55
2022/04/04 03:18:01;;;;;;;26.77;15.25;;;26.40;2201.60;;;;;;5049882;28;20086;-55
2022/04/04 03:20:27;;;;;;;25.05;15.65;;;26.50;2201.60;;;;;;5049929;28;20064;-55
2022/04/04 03:22:57;;;;;;;22.25;14.35;;;26.50;2201.60;;;;;;5049914;28;20387;-53
2022/04/04 03:25:25;;;;;;;20.80;12.93;;;26.40;2201.60;;;;;;5049546;28;20463;-55
2022/04/04 03:27:53;;;;;;;23.00;14.23;;;26.20;2201.60;;;;;;5049308;28;20025;-55
2022/04/04 03:30:23;;;;;;;22.33;13.82;;;26.20;2201.60;;;;;;5049582;28;20045;-55
2022/04/04 03:32:49;;;;;;;21.65;13.45;;;26.00;2201.60;;;;;;5049635;28;20044;-55
2022/04/04 03:35:17;;;;;;;20.42;13.10;;;26.00;2201.60;;;;;;5049666;28;20056;-54
2022/04/04 03:37:49;;;;;;;24.67;15.00;;;26.00;2201.60;;;;;;5049145;28;20032;-55
2022/04/04 03:40:16;;;;;;;22.77;13.35;;;25.90;2201.60;;;;;;5049425;28;20055;-54
2022/04/04 03:42:43;;;;;;;23.08;15.60;;;25.80;2201.60;;;;;;5049388;28;20033;-55
2022/04/04 03:45:11;;;;;;;30.77;14.43;;;26.00;2201.60;;;;;;5049552;28;20024;-54
2022/04/04 03:47:38;;;;;;;20.73;14.02;;;26.10;2201.60;;;;;;5049729;28;20025;-55
2022/04/04 03:50:05;;;;;;;21.25;13.25;;;26.30;2201.60;;;;;;5049257;28;20382;-54
2022/04/04 03:52:31;;;;;;;24.65;15.55;;;26.30;2201.60;;;;;;5049246;28;20029;-55
2022/04/04 03:54:57;;;;;;;20.25;13.63;;;26.30;2201.60;;;;;;5049564;28;20052;-54
2022/04/04 03:57:23;;;;;;;19.70;13.23;;;26.00;2201.60;;;;;;5048924;28;20047;-55
2022/04/04 03:59:49;;;;;;;27.92;14.50;;;25.90;2201.60;;;;;;5049286;28;20475;-54
2022/04/04 04:02:15;;;;;;;21.00;14.43;;;25.60;2201.60;;;;;;5049071;28;20101;-55
2022/04/04 04:04:41;;;;;;;20.85;16.20;;;0.90;2201.60;;;;;;5049223;28;20021;-55
2022/04/04 04:07:10;;;;;;;24.90;14.27;;;0.90;2201.60;;;;;;5049298;28;20375;-56
2022/04/04 04:09:37;;;;;;;22.83;14.88;;;0.90;2201.60;;;;;;5049059;28;20387;-55
2022/04/04 04:12:03;;;;;;;20.98;15.63;;;0.80;2201.60;;;;;;5049056;28;20087;-55
2022/04/04 04:14:29;;;;;;;23.70;16.75;;;0.70;2201.60;;;;;;5049090;28;20056;-54
2022/04/04 04:16:55;;;;;;;24.88;15.85;;;0.80;2201.60;;;;;;5048839;28;20059;-55
2022/04/04 04:22:06;;;;;;;23.67;15.73;;;0.70;2201.60;;;;;;5049356;28;20110;-55
2022/04/04 04:24:31;;;;;;;24.50;14.20;;;0.70;2201.60;;;;;;5049008;28;20061;-55
2022/04/04 04:26:57;;;;;;;20.92;14.57;;;0.80;2201.60;;;;;;5049152;28;20047;-53
2022/04/04 04:29:23;;;;;;;24.65;17.98;;;0.80;2201.60;;;;;;5048589;28;20146;-55
2022/04/04 04:31:48;;;;;;;21.42;14.07;;;0.90;2201.60;;;;;;5049202;28;20033;-54
2022/04/04 04:34:14;;;;;;;23.30;13.57;;;0.90;2201.60;;;;;;5047643;28;20057;-54
2022/04/04 04:36:40;;;;;;;21.48;14.35;;;25.60;2201.60;;;;;;5049093;28;20056;-53
2022/04/04 04:39:10;;;;;;;23.23;16.83;;;25.70;2201.60;;;;;;5048746;28;20103;-54
2022/04/04 04:41:36;;;;;;;21.90;14.20;;;25.90;2201.60;;;;;;5048766;28;20087;-55
2022/04/04 04:44:03;;;;;;;34.45;17.83;;;26.00;2201.60;;;;;;5048674;28;20033;-55
2022/04/04 04:46:33;;;;;;;40.05;23.98;;;26.20;2201.60;;;;;;5048840;28;20032;-55
2022/04/04 04:48:59;;;;;;;30.83;17.75;;;26.50;2201.60;;;;;;5050116;28;20048;-54
2022/04/04 04:51:25;;;;;;;34.50;25.58;;;51.20;2227.20;;;;;;5052515;28;20025;-55
2022/04/04 04:53:51;;;;;;;25.85;17.23;;;51.30;2227.20;;;;;;5052526;28;20037;-54
2022/04/04 04:56:17;;;;;;;30.20;24.45;;;51.40;2227.20;;;;;;5052584;28;20609;-55
2022/04/04 04:58:43;;;;;;;23.70;15.43;;;51.70;2227.20;;;;;;5052314;28;20113;-55
2022/04/04 05:01:09;;;;;;;23.65;14.82;;;51.60;2227.20;;;;;;5052555;28;20064;-54
2022/04/04 05:03:34;;;;;;;23.88;13.05;;;51.60;2227.20;;;;;;5052638;28;20029;-54
2022/04/04 05:06:00;;;;;;;23.20;14.45;;;51.80;2227.20;;;;;;5052510;28;20392;-54
2022/04/04 05:08:26;;;;;;;22.42;12.82;;;77.00;2227.20;;;;;;5052420;28;20112;-55
2022/04/04 05:10:53;;;;;;;26.13;14.82;;;103.10;2227.20;;;;;;5052286;28;20112;-54
2022/04/04 05:13:19;;;;;;;35.45;24.95;;;153.80;2252.80;;;;;;5051742;28;20059;-56
2022/04/04 05:15:45;;;;;;;35.03;19.83;;;154.30;2252.80;;;;;;5037029;28;20033;-55
2022/04/04 05:18:11;;;;;;;28.17;17.30;;;179.40;2201.60;;;;;;5051944;28;20232;-55
2022/04/04 05:20:37;;;;;;;26.35;15.23;;;179.60;2150.40;;;;;;5052325;28;20025;-55
2022/04/04 05:23:02;;;;;;;33.50;21.17;;;154.50;2176.00;;;;;;5052060;28;20535;-56
2022/04/04 05:25:28;;;;;;;39.85;26.27;;;154.40;2227.20;;;;;;5052096;28;20032;-55
2022/04/04 05:27:56;;;;;;;81.20;56.53;;;179.30;2176.00;;;;;;5051657;28;20021;-55
2022/04/04 05:30:22;;;;;;;79.25;53.08;;;179.30;2252.80;;;;;;5051802;28;20083;-55
2022/04/04 05:32:49;;;;;;;64.18;44.53;;;204.90;2073.60;;;;;;5040623;28;20036;-55
2022/04/04 05:35:16;;;;;;;37.90;26.23;;;205.30;2022.40;;;;;;5042306;28;20106;-55
2022/04/04 05:37:42;;;;;;;38.63;28.80;;;204.80;2022.40;;;;;;5041049;28;20112;-55
2022/04/04 05:40:09;;;;;;;57.35;39.63;;;205.10;2022.40;;;;;;5040724;28;20032;-56
2022/04/04 05:42:35;;;;;;;30.40;22.38;;;205.40;1996.80;;;;;;5045561;28;20505;-62
2022/04/04 05:45:01;;;;;;;22.27;17.23;;;230.60;1894.40;;;;;;5041254;28;20155;-58
2022/04/04 05:47:27;;;;;;;22.77;14.55;;;231.00;1843.20;;;;;;5039844;28;20467;-56
2022/04/04 05:49:53;;;;;;;19.33;14.50;;;231.00;1817.60;;;;;;5037914;28;20099;-62
2022/04/04 05:52:20;;;;;;;20.77;15.13;;;231.10;1817.60;;;;;;5040104;28;20037;-56
2022/04/04 05:54:58;;;;;;;21.98;14.52;;;230.50;1843.20;;;;;;5037130;28;20025;-62
2022/04/04 05:57:26;;;;;;;25.02;15.82;;;230.70;1843.20;;;;;;5037066;28;20033;-56
2022/04/04 05:59:52;;;;;;;22.30;16.45;;;230.80;1843.20;;;;;;5041333;28;20033;-57
2022/04/04 06:02:22;;;;;;;19.25;13.63;;;231.10;1817.60;;;;;;5042450;28;20021;-62
2022/04/04 06:04:48;;;;;;;18.45;15.00;;;256.70;1715.20;;;;;;5041049;28;20045;-64
2022/04/04 06:07:14;;;;;;;19.63;14.80;;;282.40;1664.00;;;;;;5039789;28;20110;-58
2022/04/04 06:09:40;;;;;;;21.02;13.20;;;307.60;1638.40;;;;;;5042040;28;20028;-62
2022/04/04 06:12:06;;;;;;;25.17;15.35;;;333.30;1561.60;;;;;;5040452;28;20367;-60
2022/04/04 06:14:32;;;;;;;24.40;14.23;;;358.50;1510.40;;;;;;5040105;28;20086;-62
2022/04/04 06:16:57;;;;;;;20.02;15.25;;;358.70;1459.20;;;;;;5041729;28;20021;-64
2022/04/04 06:19:23;;;;;;;21.77;17.20;;;410.00;1382.40;;;;;;5036407;28;20027;-62
2022/04/04 06:21:49;;;;;;;21.45;17.98;;;435.90;1254.40;;;;;;5032042;28;20025;-63
2022/04/04 06:24:15;;;;;;;26.33;21.52;;;486.50;1228.80;;;;;;5031726;28;20438;-63
2022/04/04 06:26:41;;;;;;;24.85;21.10;;;487.10;1152.00;;;;;;5032126;28;20836;-62
2022/04/04 06:29:10;;;;;;;25.45;22.40;;;512.40;1126.40;;;;;;5031531;28;20384;-63
2022/04/04 06:31:37;;;;;;;26.75;23.73;;;537.70;1126.40;;;;;;5031557;28;20022;-58
2022/04/04 06:34:08;;;;;;;36.42;32.65;;;563.50;1075.20;;;;;;5031718;28;20076;-62
2022/04/04 06:36:34;;;;;;;33.75;30.10;;;563.40;1075.20;;;;;;5031894;28;20022;-63
2022/04/04 06:38:59;;;;;;;39.30;28.75;;;563.80;1049.60;;;;;;5031683;28;20025;-63
2022/04/04 06:41:25;;;;;;;75.93;61.25;;;589.10;1024.00;;;;;;5031163;28;20068;-57
2022/04/04 06:43:51;;;;;;;37.97;32.25;;;588.90;1024.00;;;;;;5031332;28;20049;-58
2022/04/04 06:46:17;;;;;;;42.20;34.97;;;588.90;1024.00;;;;;;5031680;28;20098;-58
2022/04/04 06:48:45;;;;;;;62.75;54.88;;;589.00;998.40;;;;;;5030039;28;20032;-62
2022/04/04 06:51:11;;;;;;;62.25;54.03;;;537.70;1100.80;;;;;;5031390;28;20025;-56
2022/04/04 06:53:38;;;;;;;66.22;52.42;;;538.40;1075.20;;;;;;5031347;28;20131;-58
2022/04/04 06:56:04;;;;;;;62.53;56.03;;;563.50;1075.20;;;;;;5030966;28;20107;-57
2022/04/04 06:58:30;;;;;;;46.50;40.75;;;589.20;1024.00;;;;;;5031133;28;20040;-64
2022/04/04 07:00:56;;;;;;;41.55;37.55;;;563.90;1024.00;;;;;;5031151;28;20033;-58
2022/04/04 07:03:22;;;;;;;21.17;19.00;;;589.30;972.80;;;;;;5030674;28;20036;-57
2022/04/04 07:05:47;;;;;;;24.30;22.10;;;614.50;921.60;;;;;;5031168;28;20035;-60
2022/04/04 07:08:13;;;;;;;22.52;20.48;;;615.20;896.00;;;;;;5031038;28;20080;-63
2022/04/04 07:10:39;;;;;;;23.98;21.52;;;614.50;947.20;;;;;;5031091;28;20045;-57
2022/04/04 07:13:05;;;;;;;20.05;16.83;;;640.80;870.40;;;;;;5030274;28;20038;-58
2022/04/04 07:15:31;;;;;;;18.73;17.00;;;691.50;819.20;;;;;;5030802;28;20041;-58
2022/04/04 07:17:57;;;;;;;19.95;18.15;;;716.90;819.20;;;;;;5030866;28;20034;-64
2022/04/04 07:20:23;;;;;;;24.23;21.77;;;716.90;819.20;;;;;;5030606;28;20055;-62
2022/04/04 07:22:49;;;;;;;26.50;24.00;;;666.10;819.20;;;;;;5030853;28;20028;-65
2022/04/04 07:25:15;;;;;;;25.70;23.30;;;666.50;819.20;;;;;;5030496;28;20486;-64
2022/04/04 07:27:44;;;;;;;14.63;12.27;;;691.80;819.20;;;;;;5030275;28;20034;-59
2022/04/04 07:30:13;;;;;;;17.73;14.15;;;666.50;819.20;;;;;;5011208;28;20447;-58
2022/04/04 07:32:40;;;;;;;27.75;15.13;;;691.80;793.60;;;;;;5009068;28;20057;-61
2022/04/04 07:35:10;;;;;;;19.13;14.68;;;717.40;742.40;;;;;;5009207;28;20095;-61
2022/04/04 07:37:35;;;;;;;17.95;16.08;;;742.80;793.60;;;;;;5009270;28;20022;-58
2022/04/04 07:40:02;;;;;;;24.63;19.02;;;768.10;768.00;;;;;;5009033;28;20031;-59
2022/04/04 07:42:27;;;;;;;18.77;15.23;;;768.60;768.00;;;;;;5009355;28;20113;-63
2022/04/04 07:44:53;;;;;;;14.52;13.13;;;743.30;793.60;;;;;;5008854;28;20156;-58
2022/04/04 07:47:19;;;;;;;15.73;14.13;;;743.10;742.40;;;;;;5008952;28;20025;-62
2022/04/04 07:49:45;;;;;;;16.90;14.82;;;743.20;768.00;;;;;;5008969;28;20030;-59
2022/04/04 07:52:10;;;;;;;15.50;13.85;;;742.90;768.00;;;;;;5009309;28;20469;-57
2022/04/04 07:54:36;;;;;;;13.88;12.48;;;692.10;768.00;;;;;;5011161;28;20060;-57
2022/04/04 07:57:02;;;;;;;16.33;14.45;;;666.00;819.20;;;;;;5010391;28;20061;-59
2022/04/04 07:59:28;;;;;;;18.80;14.57;;;665.60;819.20;;;;;;5010917;28;20034;-63
2022/04/04 08:01:53;;;;;;;15.20;11.75;;;640.60;793.60;;;;;;5010353;28;20550;-63
2022/04/04 08:04:20;;;;;;;15.43;13.07;;;563.80;896.00;;;;;;5010567;28;20032;-57
2022/04/04 08:06:46;;;;;;;15.60;12.43;;;640.20;793.60;;;;;;5010300;28;20465;-63
2022/04/04 08:09:11;;;;;;;18.52;14.38;;;614.70;819.20;;;;;;5010368;28;20038;-59
2022/04/04 08:11:37;;;;;;;17.58;14.68;;;666.00;768.00;;;;;;5010403;28;20022;-65
2022/04/04 08:14:04;;;;;;;18.25;15.52;;;640.40;793.60;;;;;;5010183;28;20049;-63
2022/04/04 08:16:30;;;;;;;17.80;12.05;;;640.50;768.00;;;;;;5010427;28;20044;-63
2022/04/04 08:18:56;;;;;;;14.63;11.95;;;717.00;768.00;;;;;;5010345;28;20853;-64
2022/04/04 08:21:23;;;;;;;16.95;14.10;;;691.90;742.40;;;;;;5010078;28;20477;-59
2022/04/04 08:23:49;;;;;;;23.40;15.85;;;717.40;742.40;;;;;;5011402;28;20026;-64
2022/04/04 08:26:15;;;;;;;25.55;19.83;;;742.90;742.40;;;;;;5014103;28;20436;-65
2022/04/04 08:28:41;;;;;;;14.10;12.70;;;691.30;768.00;;;;;;5022118;28;20091;-65
2022/04/04 08:31:06;;;;;;;12.45;11.00;;;691.30;742.40;;;;;;5034161;28;20120;-63
2022/04/04 08:33:32;;;;;;;13.85;12.45;;;615.20;793.60;;;;;;5034091;28;20121;-62
2022/04/04 08:36:00;;;;;;;15.55;12.02;;;615.20;793.60;;;;;;5034033;28;20084;-62
2022/04/04 08:38:26;;;;;;;17.70;15.43;;;640.40;768.00;;;;;;5033964;28;20079;-63
2022/04/04 08:40:53;;;;;;;14.27;12.88;;;691.20;768.00;;;;;;5033682;28;20049;-62
2022/04/04 08:43:19;;;;;;;23.02;18.52;;;665.70;768.00;;;;;;5033860;28;20036;-62
2022/04/04 08:45:48;;;;;;;15.52;14.02;;;640.20;768.00;;;;;;5033551;28;20372;-62
2022/04/04 08:48:15;;;;;;;14.48;12.98;;;589.40;844.80;;;;;;5035331;28;20024;-62
2022/04/04 08:50:42;;;;;;;11.38;10.20;;;563.30;870.40;;;;;;5036489;28;20112;-61
2022/04/04 08:53:08;;;;;;;13.25;11.60;;;538.50;844.80;;;;;;5036278;28;20039;-59
2022/04/04 08:58:56;;;;;;;19.17;14.48;;;486.80;921.60;;;;;;5036552;28;20040;-61
2022/04/04 09:01:24;;;;;;;21.08;14.07;;;461.60;947.20;;;;;;5036437;28;20037;-60
2022/04/04 09:04:16;;;;;;;16.10;14.07;;;461.30;998.40;;;;;;5036165;28;20159;-61
2022/04/04 09:07:00;;;;;;;23.33;17.88;;;461.30;1024.00;;;;;;5036495;28;20463;-61
2022/04/04 09:16:10;;;;;;;26.90;19.60;;;435.70;1075.20;;;;;;5036547;28;20078;-61
2022/04/04 09:18:42;;;;;;;26.77;17.92;;;409.90;1152.00;;;;;;5036395;28;20109;-61
2022/04/04 09:21:20;;;;;;;18.40;13.95;;;384.70;1100.80;;;;;;5036407;28;20052;-62
2022/04/04 09:23:45;;;;;;;18.95;14.05;;;384.80;1126.40;;;;;;5036514;28;20387;-61
2022/04/04 09:26:36;;;;;;;16.23;11.18;;;359.10;1152.00;;;;;;5035787;28;20029;-62
2022/04/04 09:29:19;;;;;;;16.15;10.10;;;358.60;1152.00;;;;;;5035630;28;20402;-61
2022/04/04 09:32:05;;;;;;;18.35;11.70;;;359.00;1100.80;;;;;;5035389;28;20029;-62
2022/04/04 09:35:08;;;;;;;24.98;16.50;;;384.30;1126.40;;;;;;5035407;28;20180;-61
2022/04/04 09:37:36;;;;;;;20.75;15.40;;;384.30;1126.40;;;;;;5033443;28;20034;-62
2022/04/04 09:40:05;;;;;;;26.50;14.77;;;384.40;1100.80;;;;;;5029990;28;20107;-62
2022/04/04 09:42:32;;;;;;;22.00;15.68;;;358.80;1177.60;;;;;;5028502;28;20093;-62
2022/04/04 09:44:59;;;;;;;26.17;18.58;;;359.00;1177.60;;;;;;5028136;28;20037;-61
2022/04/04 09:47:56;;;;;;;21.10;16.20;;;359.00;1177.60;;;;;;5028482;28;20043;-61
2022/04/04 09:50:41;;;;;;;69.75;48.15;;;358.50;1203.20;;;;;;4989019;28;20035;-62
2022/04/04 09:53:29;;;;;;;26.05;17.10;;;359.00;1203.20;;;;;;4989191;28;20054;-62
2022/04/04 09:55:57;;;;;;;17.08;12.65;;;333.60;1177.60;;;;;;4989011;28;20035;-62
2022/04/04 09:58:28;;;;;;;21.40;13.13;;;333.30;1203.20;;;;;;4988464;28;20030;-62
2022/04/04 10:00:55;;;;;;;26.55;18.25;;;333.40;1152.00;;;;;;4988931;28;20102;-62
2022/04/04 10:03:22;;;;;;;25.08;14.95;;;333.50;1126.40;;;;;;4989013;28;20030;-61
2022/04/04 10:06:00;;;;;;;30.75;14.38;;;358.60;1126.40;;;;;;4989169;28;20042;-62
2022/04/04 10:08:27;;;;;;;18.77;16.52;;;358.50;1152.00;;;;;;4988701;28;20041;-61
2022/04/04 10:10:55;;;;;;;18.05;14.05;;;333.50;1126.40;;;;;;4988370;28;20037;-62
2022/04/04 10:13:23;;;;;;;13.57;10.93;;;358.50;1126.40;;;;;;4982741;28;20688;-62
2022/04/04 10:15:51;;;;;;;16.30;8.60;;;358.80;1126.40;;;;;;4969593;28;20077;-61
2022/04/04 10:18:18;;;;;;;12.77;8.55;;;333.40;1152.00;;;;;;4969354;28;20031;-62
2022/04/04 10:20:46;;;;;;;12.90;10.75;;;333.50;1126.40;;;;;;4969162;28;20122;-61
2022/04/04 10:23:13;;;;;;;11.15;8.52;;;333.30;1126.40;;;;;;4969156;28;20027;-62
2022/04/04 10:25:40;;;;;;;16.83;11.13;;;358.50;1100.80;;;;;;4974992;28;20034;-63
2022/04/04 10:28:07;;;;;;;14.57;8.63;;;358.70;1152.00;;;;;;5031890;28;20095;-61
2022/04/04 10:30:41;;;;;;;28.02;18.70;;;333.50;1152.00;;;;;;5031874;28;20034;-62
2022/04/04 10:33:22;;;;;;;16.63;13.52;;;358.50;1126.40;;;;;;5031825;28;20368;-61
2022/04/04 10:36:06;;;;;;;13.18;8.40;;;358.80;1177.60;;;;;;5031773;28;20464;-61
2022/04/04 10:38:45;;;;;;;17.10;10.63;;;359.10;1126.40;;;;;;5031860;28;20060;-61
2022/04/04 10:41:14;;;;;;;15.85;11.88;;;358.80;1177.60;;;;;;5031801;28;20025;-62
2022/04/04 10:43:47;;;;;;;12.93;9.38;;;358.50;1203.20;;;;;;5031995;28;20021;-61
2022/04/04 10:46:14;;;;;;;;;;;358.40;1177.60;;;;;;5031157;28;20072;-61
2022/04/04 10:48:41;;;;;;;15.35;10.77;;;358.70;1177.60;;;;;;5031910;28;19947;-62
2022/04/04 10:51:18;;;;;;;14.23;12.70;;;333.70;1177.60;;;;;;5031761;28;20026;-61
2022/04/04 10:53:55;;;;;;;20.40;17.33;;;333.50;1177.60;;;;;;5031055;28;20107;-61
2022/04/04 10:56:27;;;;;;;12.55;9.23;;;333.60;1177.60;;;;;;5031607;28;20443;-61
2022/04/04 10:59:14;;;;;;;20.33;15.90;;;358.40;1177.60;;;;;;5031145;28;20026;-61
2022/04/04 11:01:41;;;;;;;15.63;10.98;;;359.00;1152.00;;;;;;5028716;28;20033;-62
2022/04/04 11:04:26;;;;;;;11.80;8.00;;;358.50;1152.00;;;;;;5029705;28;20029;-62
2022/04/04 11:09:51;;;;;;;14.38;8.75;;;333.50;1152.00;;;;;;5029831;28;20036;-63
2022/04/04 11:12:18;;;;;;;28.35;20.55;;;333.70;1177.60;;;;;;5029585;28;20026;-60
2022/04/04 11:14:54;;;;;;;17.02;10.75;;;358.70;1152.00;;;;;;5028891;28;20426;-61
2022/04/04 11:17:25;;;;;;;14.45;10.38;;;358.70;1152.00;;;;;;5029736;28;20383;-62
2022/04/04 11:20:21;;;;;;;19.70;13.30;;;358.50;1152.00;;;;;;5029505;28;20037;-61
2022/04/04 11:22:52;;;;;;;12.23;7.85;;;358.40;1177.60;;;;;;5029393;28;20029;-62
2022/04/04 11:25:19;;;;;;;10.07;7.68;;;359.10;1100.80;;;;;;5029347;28;20037;-60
2022/04/04 11:27:48;;;;;;;18.13;10.13;;;384.10;1100.80;;;;;;5028640;28;20033;-62
2022/04/04 11:30:17;;;;;;;12.93;9.85;;;384.00;1126.40;;;;;;5028907;28;20041;-60
2022/04/04 11:32:44;;;;;;;12.93;8.27;;;359.10;1126.40;;;;;;5028789;28;20467;-61
2022/04/04 11:35:25;;;;;;;8.32;6.30;;;358.80;1152.00;;;;;;5029177;28;20053;-61
2022/04/04 11:38:17;;;;;;;13.82;8.07;;;358.80;1152.00;;;;;;5029011;28;20017;-61
2022/04/04 11:40:45;;;;;;;11.70;6.60;;;358.50;1177.60;;;;;;5028352;28;20037;-61
2022/04/04 11:43:13;;;;;;;9.52;6.72;;;358.60;1152.00;;;;;;5029074;28;20060;-61
2022/04/04 11:45:41;;;;;;;13.82;7.60;;;359.20;1177.60;;;;;;5029083;28;20048;-62
2022/04/04 11:48:18;;;;;;;12.32;7.88;;;359.00;1177.60;;;;;;5028964;28;20071;-62
2022/04/04 11:50:45;;;;;;;17.90;10.30;;;358.50;1152.00;;;;;;5028641;28;20471;-61
2022/04/04 11:53:17;;;;;;;16.45;9.38;;;358.50;1177.60;;;;;;5028713;28;20506;-60
2022/04/04 11:55:45;;;;;;;18.42;11.60;;;358.80;1177.60;;;;;;5028767;28;20056;-63
2022/04/04 11:58:16;;;;;;;19.95;11.93;;;358.50;1177.60;;;;;;5028549;28;20275;-63
2022/04/04 12:00:55;;;;;;;20.30;13.82;;;333.50;1228.80;;;;;;5028512;28;20030;-61
2022/04/04 12:03:23;;;;;;;19.40;12.35;;;333.20;1228.80;;;;;;5028622;28;20030;-61
2022/04/04 12:05:49;;;;;;;16.30;10.80;;;333.10;1254.40;;;;;;5028366;28;20100;-62
2022/04/04 12:08:19;;;;;;;23.50;13.27;;;333.40;1228.80;;;;;;5028205;28;20075;-60
2022/04/04 12:10:47;;;;;;;36.45;22.27;;;333.40;1254.40;;;;;;5028439;28;20036;-60
2022/04/04 12:13:19;;;;;;;15.07;11.05;;;333.40;1228.80;;;;;;5028240;28;20479;-61
2022/04/04 12:15:46;;;;;;;15.80;9.57;;;358.60;1203.20;;;;;;5028350;28;20033;-63
2022/04/04 12:18:19;;;;;;;26.02;16.75;;;358.40;1203.20;;;;;;5027852;28;20026;-62
2022/04/04 12:20:46;;;;;;;11.98;7.57;;;359.00;1203.20;;;;;;5028321;28;20053;-62
2022/04/04 12:26:01;;;;;;;9.35;7.10;;;359.20;1152.00;;;;;;5028405;28;20431;-61
2022/04/04 12:28:29;;;;;;;11.45;6.78;;;359.10;1254.40;;;;;;5030272;28;20450;-62
2022/04/04 12:30:56;;;;;;;13.95;8.90;;;358.80;1203.20;;;;;;5029914;28;20057;-61
2022/04/04 12:33:30;;;;;;;9.40;7.25;;;359.00;1177.60;;;;;;5029997;28;20052;-62